This is the latest recevied weather packets stored in our database for station/object G1OCN-WX. If no packets are shown the sender has not sent any weather packets the latest 1 day(s).
| Time | Temp. | Humidity | Pressure | Rain* | Wind** | Luminosity | Snow |
|---|---|---|---|---|---|---|---|
| 1836274660 | 15.56° C | 89% | 1012.7 hPa | 0 mm | 3.13 m/s, 208° | - | - |
| 1836274570 | 15.56° C | 89% | 1012.7 hPa | 0 mm | 3.13 m/s, 190° | - | - |
| 1836274360 | 15.56° C | 89% | 1012.7 hPa | 0 mm | 2.24 m/s, 199° | - | - |
| 1836274240 | 15.56° C | 89% | 1012.6 hPa | 0 mm | 2.24 m/s, 194° | - | - |
| 1836274060 | 15.56° C | 89% | 1012.8 hPa | 0 mm | 2.68 m/s, 212° | - | - |
| 1778060612 | 9.44° C | 78% | 1014.2 hPa | 0 mm | 5.36 m/s, 49° | - | - |
| 1778060552 | 9.44° C | 79% | 1014.3 hPa | 0 mm | 4.02 m/s, 54° | - | - |
| 1778060491 | 9.44° C | 80% | 1014.3 hPa | 0 mm | 3.58 m/s, 52° | - | - |
| 1778060431 | 9.44° C | 79% | 1014.3 hPa | 0 mm | 4.02 m/s, 56° | - | - |
| 1778060371 | 9.44° C | 80% | 1014.2 hPa | 0 mm | 4.02 m/s, 61° | - | - |
| 1778060311 | 9.44° C | 80% | 1014.2 hPa | 0 mm | 4.02 m/s, 67° | - | - |
| 1778060251 | 9.44° C | 79% | 1014.2 hPa | 0 mm | 4.47 m/s, 49° | - | - |
| 1778060191 | 9.44° C | 79% | 1014.2 hPa | 0 mm | 4.47 m/s, 59° | - | - |
| 1778060131 | 9.44° C | 80% | 1014.2 hPa | 0 mm | 4.47 m/s, 46° | - | - |
| 1778060071 | 9.44° C | 79% | 1014.2 hPa | 0 mm | 5.36 m/s, 53° | - | - |
| 1778060011 | 9.44° C | 80% | 1014.2 hPa | 0 mm | 4.47 m/s, 51° | - | - |
| 1778059951 | 9.44° C | 80% | 1014.1 hPa | 0 mm | 4.02 m/s, 52° | - | - |
| 1778059891 | 8.89° C | 80% | 1014.1 hPa | 0 mm | 4.47 m/s, 59° | - | - |
| 1778059831 | 8.89° C | 80% | 1014.1 hPa | 0 mm | 4.47 m/s, 50° | - | - |
| 1778059771 | 8.89° C | 80% | 1014.1 hPa | 0 mm | 4.02 m/s, 54° | - | - |
| 1778059711 | 8.89° C | 80% | 1014.1 hPa | 0 mm | 3.58 m/s, 55° | - | - |
| 1778059651 | 8.89° C | 80% | 1014.1 hPa | 0 mm | 4.02 m/s, 60° | - | - |
| 1778059591 | 8.89° C | 80% | 1014.1 hPa | 0 mm | 4.02 m/s, 55° | - | - |
| 1778059531 | 8.89° C | 80% | 1014.1 hPa | 0 mm | 4.02 m/s, 54° | - | - |
| 1778059441 | 8.89° C | 81% | 1014.2 hPa | 0 mm | 4.02 m/s, 50° | - | - |
* Rain latest hour (hover to see other rain measurements)
** Current wind speed in m/s (hover to see current wind gust speed)